Time;durP1;ratioP1;P1;durP2;ratioP2;P2;SDS_P1;SDS_P2;PMS_P1;PMS_P2;Temp;Humidity;BMP_temperature;BMP_pressure;BME280_temperature;BME280_humidity;BME280_pressure;Samples;Min_cycle;Max_cycle;Signal;HPM_P1;HPM_P2
2021/12/17 00:05:03;;;;;;;44.05;28.17;;;8.50;99.90;;;;;;4750129;30;20055;-85
2021/12/17 00:07:32;;;;;;;43.85;29.55;;;8.60;99.90;;;;;;4782543;30;20476;-86
2021/12/17 00:10:02;;;;;;;54.95;27.90;;;8.60;99.90;;;;;;4789842;30;20131;-85
2021/12/17 00:12:30;;;;;;;45.75;28.33;;;8.70;99.90;;;;;;4789232;30;20104;-85
2021/12/17 00:14:58;;;;;;;39.83;27.88;;;8.70;99.90;;;;;;4789772;30;20047;-85
2021/12/17 00:17:33;;;;;;;44.75;29.23;;;8.70;99.90;;;;;;4788688;30;20070;-85
2021/12/17 00:20:27;;;;;;;50.45;30.02;;;8.60;99.90;;;;;;4789616;30;20073;-85
2021/12/17 00:50:39;;;;;;;48.10;29.38;;;8.70;99.90;;;;;;4789430;30;20114;-85
2021/12/17 00:53:07;;;;;;;44.35;29.13;;;8.70;99.90;;;;;;4789426;30;20054;-86
2021/12/17 00:55:34;;;;;;;45.83;28.38;;;8.60;99.90;;;;;;4789387;30;20051;-85
2021/12/17 00:58:02;;;;;;;40.78;27.98;;;8.60;99.90;;;;;;4789112;30;20047;-85
2021/12/17 01:00:29;;;;;;;44.45;27.60;;;8.50;99.90;;;;;;4789507;30;20055;-86
2021/12/17 01:02:56;;;;;;;46.70;28.70;;;8.50;99.90;;;;;;4789100;30;20125;-86
2021/12/17 01:05:27;;;;;;;47.38;29.08;;;8.50;99.90;;;;;;4789178;30;20143;-85
2021/12/17 01:07:57;;;;;;;54.38;30.25;;;8.50;99.90;;;;;;4788686;30;20092;-85
2021/12/17 01:10:29;;;;;;;46.00;29.60;;;8.50;99.90;;;;;;4788941;30;20058;-85
2021/12/17 01:12:57;;;;;;;48.13;30.73;;;8.50;99.90;;;;;;4788245;30;20432;-84
2021/12/17 01:15:25;;;;;;;48.90;29.30;;;8.50;99.90;;;;;;4772729;30;20056;-85
2021/12/17 01:17:56;;;;;;;42.97;30.80;;;8.60;99.90;;;;;;4788603;30;20052;-85
2021/12/17 01:20:45;;;;;;;43.30;30.42;;;8.60;99.90;;;;;;4773103;30;20426;-85
2021/12/17 01:23:32;;;;;;;49.78;31.77;;;8.50;99.90;;;;;;4788470;30;20055;-85
2021/12/17 01:37:33;;;;;;;46.85;31.15;;;8.50;99.90;;;;;;4770720;30;20059;-86
2021/12/17 01:42:34;;;;;;;51.97;32.58;;;8.40;99.90;;;;;;4777094;30;20154;-86
2021/12/17 01:45:01;;;;;;;57.35;34.50;;;8.30;99.90;;;;;;4788350;30;20109;-86
2021/12/17 01:47:28;;;;;;;44.67;33.22;;;8.30;99.90;;;;;;4788268;30;20043;-85
2021/12/17 01:55:50;;;;;;;44.38;30.77;;;8.50;99.90;;;;;;4788848;30;20165;-85
2021/12/17 02:01:05;;;;;;;54.08;32.60;;;8.50;99.90;;;;;;4788813;30;20118;-85
2021/12/17 02:03:32;;;;;;;54.08;33.35;;;8.30;99.90;;;;;;4788330;30;20059;-85
2021/12/17 02:06:02;;;;;;;51.50;33.00;;;8.20;99.90;;;;;;4788182;30;20059;-86
2021/12/17 02:08:31;;;;;;;51.88;33.33;;;8.10;99.90;;;;;;4788091;30;20427;-86
2021/12/17 02:19:44;;;;;;;64.38;37.72;;;8.00;99.90;;;;;;4788066;30;20070;-85
2021/12/17 02:30:43;;;;;;;49.40;34.55;;;8.00;99.90;;;;;;4796175;29;20061;-85
2021/12/17 02:33:11;;;;;;;60.53;38.85;;;8.00;99.90;;;;;;4796851;29;20058;-85
2021/12/17 02:35:41;;;;;;;54.95;35.60;;;7.90;99.90;;;;;;4787656;30;20060;-85
2021/12/17 02:38:12;;;;;;;55.22;39.38;;;7.90;99.90;;;;;;4787931;30;20048;-85
2021/12/17 02:46:09;;;;;;;70.97;41.88;;;7.80;99.90;;;;;;4787950;30;20062;-85
2021/12/17 02:48:37;;;;;;;55.50;37.72;;;7.80;99.90;;;;;;4787871;30;20047;-85
2021/12/17 02:51:04;;;;;;;64.20;36.42;;;7.90;99.90;;;;;;4787945;30;20495;-86
2021/12/17 02:53:33;;;;;;;51.65;35.53;;;8.00;99.90;;;;;;4787933;30;20462;-85
2021/12/17 02:56:02;;;;;;;55.67;35.67;;;8.00;99.90;;;;;;4787934;30;20054;-85
2021/12/17 02:58:30;;;;;;;;;;;8.00;99.90;;;;;;4775483;30;20051;-85
2021/12/17 03:00:58;;;;;;;59.70;39.28;;;8.00;99.90;;;;;;4787830;30;19926;-85
2021/12/17 03:03:31;;;;;;;66.88;43.42;;;7.90;99.90;;;;;;4787957;29;20066;-85
2021/12/17 03:05:58;;;;;;;76.07;51.30;;;7.90;99.90;;;;;;4791509;30;20062;-85
2021/12/17 03:08:25;;;;;;;71.57;43.33;;;7.90;99.90;;;;;;4791431;30;20055;-85
2021/12/17 03:10:54;;;;;;;57.08;39.28;;;7.90;99.90;;;;;;4791077;30;20087;-85
2021/12/17 03:13:24;;;;;;;62.53;39.17;;;7.90;99.90;;;;;;4790917;30;20506;-85
2021/12/17 03:15:55;;;;;;;66.20;38.10;;;7.90;99.90;;;;;;4791410;30;20059;-85
2021/12/17 03:23:51;;;;;;;56.67;36.50;;;7.80;99.90;;;;;;4790692;30;20454;-85
2021/12/17 03:26:22;;;;;;;54.05;37.85;;;7.80;99.90;;;;;;4790667;29;20511;-85
2021/12/17 03:28:51;;;;;;;59.97;38.55;;;7.80;99.90;;;;;;4791119;30;20058;-85
2021/12/17 03:31:19;;;;;;;51.72;34.38;;;7.80;99.90;;;;;;4790680;30;20056;-85
2021/12/17 03:33:49;;;;;;;58.05;36.67;;;7.80;99.90;;;;;;4789957;30;20490;-85
2021/12/17 03:36:17;;;;;;;51.83;36.63;;;7.80;99.90;;;;;;4790137;30;20507;-86
2021/12/17 03:38:46;;;;;;;60.85;36.75;;;7.70;99.90;;;;;;4790612;30;20124;-85
2021/12/17 03:41:18;;;;;;;64.85;38.08;;;7.70;99.90;;;;;;4789921;30;20057;-85
2021/12/17 03:43:48;;;;;;;56.63;36.33;;;7.60;99.90;;;;;;4785449;30;20076;-85
2021/12/17 03:46:16;;;;;;;56.08;34.90;;;7.70;99.90;;;;;;4788590;30;20079;-85
2021/12/17 03:48:44;;;;;;;48.75;32.33;;;7.60;99.90;;;;;;4790261;30;20077;-85
2021/12/17 03:51:14;;;;;;;49.08;35.58;;;7.70;99.90;;;;;;4790837;30;20047;-85
2021/12/17 03:53:44;;;;;;;45.47;32.70;;;7.60;99.90;;;;;;4790167;30;20521;-85
2021/12/17 03:56:11;;;;;;;51.88;34.45;;;7.60;99.90;;;;;;4790900;30;20100;-85
2021/12/17 03:58:38;;;;;;;44.58;31.48;;;7.50;99.90;;;;;;4790662;30;20507;-85
2021/12/17 04:01:07;;;;;;;44.08;30.95;;;7.50;99.90;;;;;;4790626;30;20495;-85
2021/12/17 04:03:35;;;;;;;48.80;31.95;;;7.50;99.90;;;;;;4790173;30;20078;-85
2021/12/17 04:06:04;;;;;;;46.50;31.17;;;7.50;99.90;;;;;;4790100;30;20047;-85
2021/12/17 04:08:31;;;;;;;50.97;33.83;;;7.50;99.90;;;;;;4790795;30;20101;-85
2021/12/17 04:11:04;;;;;;;51.10;35.10;;;7.40;99.90;;;;;;4789956;30;20094;-86
2021/12/17 04:13:34;;;;;;;53.20;33.13;;;7.20;99.90;;;;;;4790045;29;20056;-82
2021/12/17 04:16:05;;;;;;;50.28;32.95;;;7.20;99.90;;;;;;4790288;29;20055;-85
2021/12/17 04:18:36;;;;;;;44.88;30.35;;;7.20;99.90;;;;;;4789958;30;20146;-85
2021/12/17 04:21:09;;;;;;;47.72;29.77;;;7.20;99.90;;;;;;4790275;30;20086;-85
2021/12/17 04:23:36;;;;;;;52.83;32.78;;;7.20;99.90;;;;;;4789738;30;20062;-85
2021/12/17 04:26:03;;;;;;;41.35;28.77;;;7.30;99.90;;;;;;4788837;29;20482;-85
2021/12/17 04:28:30;;;;;;;46.13;31.08;;;7.20;99.90;;;;;;4790770;29;20053;-85
2021/12/17 04:31:00;;;;;;;41.88;30.08;;;7.20;99.90;;;;;;4789604;30;20055;-85
2021/12/17 04:33:27;;;;;;;46.80;32.72;;;7.10;99.90;;;;;;4789910;30;20470;-85
2021/12/17 04:35:57;;;;;;;43.17;30.88;;;7.00;99.90;;;;;;4773715;30;20055;-85
2021/12/17 04:38:26;;;;;;;47.28;30.98;;;6.90;99.90;;;;;;4789689;30;20437;-85
2021/12/17 04:40:53;;;;;;;;;;;6.90;99.90;;;;;;4790168;30;20056;-85
2021/12/17 04:43:33;;;;;;;38.42;27.58;;;7.00;99.90;;;;;;4789868;30;20370;-85
2021/12/17 04:46:14;;;;;;;38.28;26.33;;;7.00;99.90;;;;;;4789871;30;20059;-85
2021/12/17 04:59:40;;;;;;;40.47;24.48;;;6.80;99.90;;;;;;4789185;30;20062;-85
2021/12/17 05:02:07;;;;;;;39.60;25.92;;;6.90;99.90;;;;;;4789142;30;20098;-83
2021/12/17 05:04:34;;;;;;;39.78;25.75;;;6.90;99.90;;;;;;4789223;30;20055;-84
2021/12/17 05:07:03;;;;;;;45.05;27.83;;;6.70;99.90;;;;;;4789349;30;20086;-84
2021/12/17 05:09:36;;;;;;;43.00;26.00;;;6.70;99.90;;;;;;4789256;30;20087;-85
2021/12/17 05:20:43;;;;;;;;;;;6.50;99.90;;;;;;4751827;30;20056;-85
2021/12/17 05:23:13;;;;;;;28.17;18.95;;;6.70;99.90;;;;;;4751242;30;19930;-84
2021/12/17 05:25:40;;;;;;;34.47;20.92;;;6.60;99.90;;;;;;4770719;30;20418;-84
2021/12/17 05:28:07;;;;;;;38.20;22.80;;;6.60;99.90;;;;;;4788780;29;20050;-85
2021/12/17 05:30:40;;;;;;;35.40;22.13;;;6.40;99.90;;;;;;4789022;30;20047;-84
2021/12/17 05:33:07;;;;;;;31.05;17.77;;;6.40;99.90;;;;;;4788726;30;20495;-84
2021/12/17 05:35:36;;;;;;;25.60;17.77;;;6.50;99.90;;;;;;4788578;30;20047;-84
2021/12/17 05:38:06;;;;;;;31.67;20.13;;;6.40;99.90;;;;;;4788760;30;20167;-84
2021/12/17 05:40:37;;;;;;;32.63;21.65;;;6.20;99.90;;;;;;4788679;30;20058;-84
2021/12/17 05:43:06;;;;;;;30.35;20.33;;;6.20;99.90;;;;;;4787817;30;20130;-85
2021/12/17 05:45:48;;;;;;;27.52;18.15;;;6.10;99.90;;;;;;4787181;30;20095;-85
2021/12/17 05:48:17;;;;;;;29.83;19.48;;;6.00;99.90;;;;;;4770814;30;20066;-85
2021/12/17 05:50:45;;;;;;;;;;;6.00;99.90;;;;;;4788915;30;20055;-86
2021/12/17 05:53:12;;;;;;;29.67;18.85;;;6.00;99.90;;;;;;4788147;30;19941;-85
2021/12/17 05:55:41;;;;;;;29.25;18.05;;;6.10;99.90;;;;;;4788002;30;20073;-85
2021/12/17 05:58:09;;;;;;;31.00;17.75;;;6.00;99.90;;;;;;4789082;30;20108;-85
2021/12/17 06:00:39;;;;;;;30.00;17.23;;;5.90;99.90;;;;;;4788618;30;20116;-86
2021/12/17 06:03:06;;;;;;;25.60;16.13;;;6.00;99.90;;;;;;4788747;30;20087;-85
2021/12/17 06:05:33;;;;;;;24.92;15.70;;;6.20;99.90;;;;;;4788639;30;20051;-85
2021/12/17 06:08:00;;;;;;;28.30;17.13;;;6.30;99.90;;;;;;4788586;30;20051;-85
2021/12/17 06:10:28;;;;;;;26.58;15.57;;;6.30;99.90;;;;;;4788005;30;20073;-85
2021/12/17 06:12:56;;;;;;;31.02;16.85;;;6.20;99.90;;;;;;4788057;30;20471;-85
2021/12/17 06:15:24;;;;;;;27.02;17.40;;;6.20;99.90;;;;;;4788363;30;20464;-85
2021/12/17 06:17:52;;;;;;;30.48;17.67;;;6.00;99.90;;;;;;4788402;30;20468;-85
2021/12/17 06:20:24;;;;;;;29.23;18.53;;;5.80;99.90;;;;;;4799819;29;20474;-85
2021/12/17 06:22:51;;;;;;;29.13;17.60;;;5.80;99.90;;;;;;4783281;30;20052;-85
2021/12/17 06:25:18;;;;;;;29.77;19.67;;;5.60;99.90;;;;;;4788216;29;20066;-85
2021/12/17 06:27:46;;;;;;;30.98;17.77;;;5.60;99.90;;;;;;4788806;30;20048;-85
2021/12/17 06:30:16;;;;;;;34.33;20.20;;;5.40;99.90;;;;;;4787988;30;20113;-85
2021/12/17 06:32:43;;;;;;;29.35;19.05;;;5.40;99.90;;;;;;4787516;30;20533;-84
2021/12/17 06:35:11;;;;;;;37.67;20.25;;;5.30;99.90;;;;;;4788415;30;20104;-84
2021/12/17 06:37:40;;;;;;;34.03;19.35;;;5.30;99.90;;;;;;4788049;29;20116;-84
2021/12/17 06:40:09;;;;;;;37.92;20.92;;;5.20;99.90;;;;;;4791314;30;20106;-83
2021/12/17 06:42:36;;;;;;;34.45;19.77;;;5.20;99.90;;;;;;4791554;30;20114;-83
2021/12/17 06:45:09;;;;;;;33.65;20.92;;;5.10;99.90;;;;;;4791623;30;20179;-84
2021/12/17 06:47:39;;;;;;;32.03;18.75;;;5.10;99.90;;;;;;4791837;30;20139;-83
2021/12/17 06:56:11;;;;;;;28.63;18.63;;;5.30;99.90;;;;;;4791718;30;20132;-83
2021/12/17 06:58:54;;;;;;;29.15;18.23;;;5.30;99.90;;;;;;4791179;29;20056;-84
2021/12/17 07:18:02;;;;;;;33.70;19.13;;;4.70;99.90;;;;;;4791349;30;20156;-83
2021/12/17 07:20:59;;;;;;;;;;;4.80;99.90;;;;;;4791461;30;20142;-83
2021/12/17 07:23:48;;;;;;;29.90;17.35;;;4.90;99.90;;;;;;4773140;30;19926;-84
2021/12/17 07:34:44;;;;;;;22.52;14.68;;;5.00;99.90;;;;;;4790749;30;20054;-84
2021/12/17 07:39:57;;;;;;;26.45;15.80;;;5.00;99.90;;;;;;4790374;30;20058;-84
2021/12/17 07:42:25;;;;;;;27.23;17.38;;;5.00;99.90;;;;;;4790121;30;20132;-84
2021/12/17 07:44:52;;;;;;;27.35;17.23;;;5.00;99.90;;;;;;4790772;30;20440;-84
2021/12/17 07:47:19;;;;;;;30.48;17.88;;;4.90;99.90;;;;;;4790849;30;20086;-84
2021/12/17 07:49:46;;;;;;;30.58;17.52;;;4.70;99.90;;;;;;4790479;29;20509;-84
2021/12/17 07:52:15;;;;;;;32.88;18.92;;;4.80;99.90;;;;;;4790343;30;20055;-84
2021/12/17 07:54:42;;;;;;;31.38;18.30;;;4.90;99.90;;;;;;4790245;30;20055;-84
2021/12/17 07:57:09;;;;;;;29.65;19.40;;;4.80;99.90;;;;;;4790373;30;20047;-84
2021/12/17 07:59:36;;;;;;;37.20;18.60;;;4.70;99.90;;;;;;4790907;30;20131;-84
2021/12/17 08:02:03;;;;;;;30.35;20.58;;;4.60;99.90;;;;;;4790258;30;20461;-84
2021/12/17 08:04:30;;;;;;;41.55;20.35;;;4.70;99.90;;;;;;4791584;30;20104;-84
2021/12/17 08:06:57;;;;;;;30.80;18.52;;;4.60;99.90;;;;;;4790877;30;20509;-84
2021/12/17 08:09:28;;;;;;;35.05;19.70;;;4.60;99.90;;;;;;4790723;29;20051;-83
2021/12/17 08:11:57;;;;;;;32.42;19.38;;;4.60;99.90;;;;;;4778866;30;20055;-83
2021/12/17 08:14:29;;;;;;;35.30;19.45;;;4.60;99.90;;;;;;4789504;30;20154;-84
2021/12/17 08:17:03;;;;;;;37.60;19.45;;;4.60;99.90;;;;;;4791102;29;20118;-84
2021/12/17 08:25:12;;;;;;;43.13;20.98;;;4.60;99.90;;;;;;4789277;30;20069;-85
2021/12/17 08:27:51;;;;;;;39.53;18.63;;;4.70;99.90;;;;;;4790348;29;20120;-84
2021/12/17 08:30:28;;;;;;;30.88;18.63;;;4.70;99.90;;;;;;4790760;30;20054;-83
2021/12/17 08:32:55;;;;;;;36.47;19.58;;;4.70;99.90;;;;;;4789775;30;20476;-85
2021/12/17 08:35:25;;;;;;;37.13;20.13;;;4.70;99.90;;;;;;4789580;30;20483;-84
2021/12/17 08:37:54;;;;;;;35.03;19.02;;;4.60;99.90;;;;;;4790127;30;20055;-84
2021/12/17 08:40:26;;;;;;;36.55;18.10;;;4.70;99.90;;;;;;4789576;30;20051;-84
2021/12/17 08:42:54;;;;;;;42.08;20.10;;;4.80;99.90;;;;;;4789123;30;20458;-85
2021/12/17 08:45:21;;;;;;;36.13;19.75;;;4.60;99.90;;;;;;4789842;30;20051;-85
2021/12/17 08:47:49;;;;;;;35.08;17.75;;;4.70;99.90;;;;;;4789216;30;20051;-83
2021/12/17 08:50:18;;;;;;;33.67;17.60;;;4.60;99.90;;;;;;4789457;30;20055;-85
2021/12/17 08:52:46;;;;;;;39.78;21.45;;;4.70;99.90;;;;;;4786707;30;20060;-85
2021/12/17 08:55:13;;;;;;;32.28;19.80;;;4.60;99.90;;;;;;4775775;30;20403;-87
2021/12/17 08:57:42;;;;;;;35.47;19.88;;;4.80;99.90;;;;;;4787377;30;20082;-84
2021/12/17 09:00:13;;;;;;;34.50;20.77;;;4.70;99.90;;;;;;4790022;30;20055;-84
2021/12/17 09:02:45;;;;;;;34.55;19.73;;;4.50;99.90;;;;;;4785644;29;20082;-86
2021/12/17 09:05:12;;;;;;;34.28;19.63;;;4.60;99.90;;;;;;4765843;30;20066;-84
2021/12/17 09:07:42;;;;;;;36.53;19.48;;;4.60;99.90;;;;;;4785777;30;20077;-85
2021/12/17 09:10:18;;;;;;;32.92;18.38;;;4.70;99.90;;;;;;4784467;30;20400;-85
2021/12/17 09:12:47;;;;;;;31.20;18.13;;;4.70;99.90;;;;;;4790423;29;20129;-85
2021/12/17 09:15:14;;;;;;;30.17;18.83;;;4.80;99.90;;;;;;4793820;29;20051;-84
2021/12/17 09:17:41;;;;;;;37.15;20.77;;;4.80;99.90;;;;;;4781796;30;20111;-85
2021/12/17 09:20:09;;;;;;;37.55;17.98;;;4.80;99.90;;;;;;4786793;29;20059;-84
2021/12/17 09:22:36;;;;;;;28.60;17.65;;;4.80;99.90;;;;;;4779892;30;20059;-84
2021/12/17 09:25:04;;;;;;;32.65;19.02;;;5.10;99.90;;;;;;4785019;30;20108;-85
2021/12/17 09:27:32;;;;;;;33.38;18.08;;;5.00;99.90;;;;;;4787463;29;20122;-86
2021/12/17 09:30:00;;;;;;;32.78;19.00;;;5.00;99.90;;;;;;4785734;30;20047;-85
2021/12/17 09:32:30;;;;;;;33.83;19.90;;;4.90;99.90;;;;;;4782896;29;20491;-86
2021/12/17 09:34:57;;;;;;;;;;;5.00;99.90;;;;;;4743384;29;20161;-83
2021/12/17 09:37:24;;;;;;;32.90;18.15;;;4.90;99.90;;;;;;4698178;29;20006;-88
2021/12/17 09:39:51;;;;;;;31.63;18.67;;;5.10;99.90;;;;;;4697545;30;20149;-83
2021/12/17 09:42:18;;;;;;;32.47;18.92;;;5.10;99.90;;;;;;4699401;29;20074;-83
2021/12/17 09:44:45;;;;;;;30.23;19.13;;;5.20;99.90;;;;;;4721756;29;20220;-88
2021/12/17 09:47:15;;;;;;;32.83;17.77;;;5.20;99.90;;;;;;4730739;29;20055;-83
2021/12/17 09:49:42;;;;;;;34.20;19.20;;;5.50;99.90;;;;;;4733270;29;20065;-84
2021/12/17 09:52:10;;;;;;;36.60;19.70;;;5.20;99.90;;;;;;4732448;30;20104;-84
2021/12/17 09:54:37;;;;;;;32.05;17.42;;;5.30;99.90;;;;;;4729954;29;20055;-85
2021/12/17 09:57:05;;;;;;;33.53;20.02;;;5.30;99.90;;;;;;4732821;29;20367;-84
2021/12/17 09:59:33;;;;;;;39.60;19.85;;;5.40;99.90;;;;;;4732350;29;20063;-85
2021/12/17 10:02:01;;;;;;;33.72;18.10;;;5.40;99.90;;;;;;4732538;30;20055;-87
2021/12/17 10:04:31;;;;;;;25.67;17.70;;;5.50;99.90;;;;;;4742319;29;20059;-86
2021/12/17 10:07:18;;;;;;;30.05;18.00;;;5.60;99.90;;;;;;4722747;30;20065;-86
2021/12/17 10:09:47;;;;;;;35.15;21.00;;;5.50;99.90;;;;;;4730620;30;20786;-85
2021/12/17 10:12:16;;;;;;;38.22;20.85;;;5.50;99.90;;;;;;4736305;29;20058;-84
2021/12/17 10:14:43;;;;;;;35.92;20.85;;;5.60;99.90;;;;;;4732808;29;20786;-86
2021/12/17 10:17:13;;;;;;;29.98;18.17;;;5.60;99.90;;;;;;4741385;29;20108;-84
2021/12/17 10:19:47;;;;;;;34.13;19.27;;;5.60;99.90;;;;;;4735566;30;20047;-86
2021/12/17 10:22:18;;;;;;;29.60;18.20;;;5.60;99.90;;;;;;4733072;30;20043;-84
2021/12/17 10:24:56;;;;;;;30.35;18.55;;;5.90;99.90;;;;;;4739854;30;20120;-84
2021/12/17 10:27:26;;;;;;;27.98;18.23;;;5.80;99.90;;;;;;4739547;29;20054;-85
2021/12/17 10:29:55;;;;;;;36.83;19.48;;;5.90;99.90;;;;;;4729792;30;20106;-84
2021/12/17 10:32:24;;;;;;;30.05;17.63;;;6.00;99.90;;;;;;4708988;30;20075;-84
2021/12/17 10:35:09;;;;;;;41.05;22.17;;;6.10;99.90;;;;;;4714504;30;20284;-84
2021/12/17 10:37:39;;;;;;;32.00;18.58;;;6.20;99.90;;;;;;4715837;29;20055;-85
2021/12/17 10:40:19;;;;;;;31.77;18.30;;;6.10;99.90;;;;;;4719789;29;20066;-85
2021/12/17 10:42:59;;;;;;;34.00;19.85;;;6.30;99.90;;;;;;4726006;29;20059;-86
2021/12/17 10:45:31;;;;;;;34.08;20.30;;;6.20;99.90;;;;;;4726698;29;20463;-84
2021/12/17 10:48:35;;;;;;;38.20;22.58;;;6.20;99.90;;;;;;4721649;29;20055;-85
2021/12/17 10:51:30;;;;;;;45.63;24.08;;;6.30;99.90;;;;;;4719801;29;20051;-86
2021/12/17 10:53:59;;;;;;;40.97;23.45;;;6.30;99.90;;;;;;4716804;29;20051;-83
2021/12/17 10:56:27;;;;;;;;;;;6.70;99.90;;;;;;4741357;29;20051;-84
2021/12/17 10:59:01;;;;;;;33.30;19.23;;;6.80;99.90;;;;;;4728686;29;19925;-83
2021/12/17 11:01:40;;;;;;;36.20;20.05;;;7.10;99.90;;;;;;4719738;29;20074;-84
2021/12/17 11:04:13;;;;;;;37.00;19.90;;;7.20;99.90;;;;;;4714025;29;20502;-83
2021/12/17 11:06:54;;;;;;;35.78;21.17;;;7.30;99.90;;;;;;4721293;29;20043;-84
2021/12/17 11:09:38;;;;;;;40.75;21.27;;;9.10;99.90;;;;;;4721900;29;20075;-84
2021/12/17 11:12:28;;;;;;;33.55;21.92;;;8.40;99.90;;;;;;4715814;29;20066;-83
2021/12/17 11:15:07;;;;;;;34.28;21.35;;;7.40;99.90;;;;;;4711673;29;20149;-83
2021/12/17 11:17:38;;;;;;;42.75;21.10;;;7.80;99.90;;;;;;4711136;30;20055;-83
2021/12/17 11:20:14;;;;;;;32.42;19.35;;;7.40;99.90;;;;;;4714313;30;21016;-83
2021/12/17 11:22:44;;;;;;;36.65;21.67;;;7.50;99.90;;;;;;4709299;30;20078;-83
2021/12/17 11:25:12;;;;;;;38.20;20.50;;;7.60;99.90;;;;;;4722914;29;20887;-84
2021/12/17 11:27:41;;;;;;;37.13;21.88;;;7.70;99.90;;;;;;4718910;29;21175;-84
2021/12/17 11:30:11;;;;;;;34.20;19.38;;;7.60;99.90;;;;;;4721508;30;21019;-84
2021/12/17 11:32:46;;;;;;;30.75;20.23;;;7.80;99.90;;;;;;4719330;30;20127;-85
2021/12/17 11:35:15;;;;;;;42.58;20.42;;;7.50;99.90;;;;;;4716668;30;20039;-84
2021/12/17 11:37:44;;;;;;;;;;;7.60;99.90;;;;;;4726652;29;20143;-84
2021/12/17 11:40:18;;;;;;;37.05;19.10;;;9.00;99.90;;;;;;4718616;29;19952;-83
2021/12/17 11:43:01;;;;;;;42.45;21.02;;;6.20;99.90;;;;;;4718342;29;20064;-85
2021/12/17 11:45:29;;;;;;;35.20;19.73;;;8.00;99.90;;;;;;4731054;29;20150;-86
2021/12/17 11:48:19;;;;;;;36.83;20.58;;;7.60;99.90;;;;;;4694360;30;20060;-84
2021/12/17 11:51:00;;;;;;;37.03;21.05;;;7.50;99.90;;;;;;4716605;29;20133;-84
2021/12/17 11:53:30;;;;;;;35.38;19.90;;;7.50;99.90;;;;;;4736028;29;20980;-86
2021/12/17 11:55:59;;;;;;;32.45;19.48;;;7.60;99.90;;;;;;4718752;29;20062;-85
2021/12/17 11:58:45;;;;;;;30.40;20.08;;;7.80;99.90;;;;;;4726181;30;20059;-87
2021/12/17 12:01:16;;;;;;;30.58;18.77;;;7.90;99.90;;;;;;4724400;30;20055;-89
2021/12/17 12:03:46;;;;;;;34.47;20.75;;;7.70;99.90;;;;;;4720519;29;20845;-89
2021/12/17 12:06:35;;;;;;;32.60;19.38;;;7.90;99.90;;;;;;4722648;29;20077;-86
2021/12/17 12:09:05;;;;;;;32.63;19.95;;;8.20;99.90;;;;;;4727307;29;20458;-86
2021/12/17 12:11:35;;;;;;;32.70;17.42;;;7.90;99.90;;;;;;4719486;30;20059;-88
2021/12/17 12:14:02;;;;;;;29.08;18.13;;;8.10;99.90;;;;;;4723654;29;20075;-86
2021/12/17 12:16:43;;;;;;;33.78;19.58;;;8.20;99.90;;;;;;4735405;29;20051;-88
2021/12/17 12:19:20;;;;;;;29.02;19.17;;;8.00;99.90;;;;;;4735612;30;20043;-88
2021/12/17 12:22:09;;;;;;;32.33;21.50;;;8.20;99.90;;;;;;4749465;30;20146;-85
2021/12/17 12:24:47;;;;;;;29.40;19.33;;;8.10;99.90;;;;;;4764025;29;20475;-87
2021/12/17 12:27:28;;;;;;;28.75;18.23;;;8.00;99.90;;;;;;4791702;29;20142;-86
2021/12/17 12:29:57;;;;;;;31.60;19.63;;;8.00;99.90;;;;;;4807209;29;20082;-88
2021/12/17 12:32:25;;;;;;;29.02;17.85;;;8.10;99.90;;;;;;4777149;30;20109;-88
2021/12/17 12:35:12;;;;;;;34.80;20.65;;;8.10;99.90;;;;;;4790280;30;20051;-90
2021/12/17 12:37:39;;;;;;;24.60;16.25;;;8.00;99.90;;;;;;4796802;29;20128;-88
2021/12/17 12:40:18;;;;;;;30.67;18.42;;;8.30;99.90;;;;;;4792005;30;20503;-89
2021/12/17 12:42:53;;;;;;;28.67;19.35;;;8.60;99.90;;;;;;4791638;29;20058;-87
2021/12/17 12:45:23;;;;;;;28.27;17.35;;;8.30;99.90;;;;;;4791271;29;20087;-87
2021/12/17 12:48:00;;;;;;;31.35;18.83;;;8.40;99.90;;;;;;4790334;29;20050;-90
2021/12/17 12:50:31;;;;;;;30.88;17.65;;;8.80;99.90;;;;;;4790234;30;20063;-88
2021/12/17 12:53:05;;;;;;;31.20;18.23;;;8.40;99.90;;;;;;4786644;30;20055;-85
2021/12/17 12:55:43;;;;;;;30.40;15.35;;;8.40;99.90;;;;;;4791117;30;20055;-88
2021/12/17 12:58:12;;;;;;;29.02;17.27;;;8.40;99.90;;;;;;4789887;30;20054;-87
2021/12/17 13:00:43;;;;;;;;;;;8.60;99.90;;;;;;4791508;29;20055;-88
2021/12/17 13:03:15;;;;;;;26.42;18.92;;;8.50;99.90;;;;;;4789577;29;20446;-87
2021/12/17 13:05:44;;;;;;;29.90;18.73;;;8.50;99.90;;;;;;4792708;30;20495;-87
2021/12/17 13:08:14;;;;;;;;;;;8.80;99.90;;;;;;4791542;30;20830;-87
2021/12/17 13:10:45;;;;;;;28.42;18.52;;;8.70;99.90;;;;;;4791203;30;19925;-88
2021/12/17 13:13:18;;;;;;;28.30;19.35;;;8.80;99.90;;;;;;4790480;30;20090;-88
2021/12/17 13:15:50;;;;;;;26.23;18.30;;;8.70;99.90;;;;;;4792328;30;20059;-87
2021/12/17 13:21:34;;;;;;;28.48;19.58;;;8.90;99.90;;;;;;4751488;30;20059;-86
2021/12/17 13:24:11;;;;;;;32.05;18.52;;;8.70;99.90;;;;;;4780047;29;20055;-86
2021/12/17 13:26:43;;;;;;;35.15;19.35;;;8.60;99.90;;;;;;4784204;29;20087;-85
2021/12/17 13:29:14;;;;;;;30.95;18.30;;;8.70;99.90;;;;;;4738431;29;20074;-88
2021/12/17 13:31:54;;;;;;;33.42;20.27;;;8.70;99.90;;;;;;4730334;30;20133;-86
2021/12/17 13:34:41;;;;;;;35.25;20.17;;;8.60;99.90;;;;;;4775427;30;20047;-87
2021/12/17 13:37:12;;;;;;;29.83;19.45;;;7.30;99.90;;;;;;4784717;30;20043;-84
2021/12/17 13:39:43;;;;;;;29.38;18.95;;;8.60;99.90;;;;;;4784156;30;20166;-86
2021/12/17 13:42:16;;;;;;;30.08;20.60;;;8.60;99.90;;;;;;4783995;30;20391;-86
2021/12/17 13:44:49;;;;;;;34.92;18.50;;;8.60;99.90;;;;;;4782135;30;20055;-86
2021/12/17 13:47:25;;;;;;;29.00;19.42;;;8.60;99.90;;;;;;4786943;29;20143;-84
2021/12/17 13:49:57;;;;;;;32.75;17.48;;;8.60;99.90;;;;;;4784937;29;20051;-86
2021/12/17 13:52:26;;;;;;;26.85;15.68;;;8.70;99.90;;;;;;4783448;29;20062;-85
2021/12/17 13:54:55;;;;;;;25.73;15.57;;;8.90;99.90;;;;;;4782429;29;20054;-86
2021/12/17 13:57:29;;;;;;;30.33;17.10;;;8.90;99.90;;;;;;4784589;29;20078;-88
2021/12/17 14:00:06;;;;;;;29.77;16.75;;;8.90;99.90;;;;;;4783631;29;20079;-85
2021/12/17 14:02:37;;;;;;;26.35;15.35;;;8.90;99.90;;;;;;4787013;29;20060;-85
2021/12/17 14:05:11;;;;;;;27.17;15.32;;;9.10;99.90;;;;;;4783901;29;20827;-86
2021/12/17 14:07:40;;;;;;;28.10;16.60;;;9.10;99.90;;;;;;4781526;29;20460;-85
2021/12/17 14:10:13;;;;;;;32.25;15.88;;;9.20;99.90;;;;;;4784868;29;20043;-85
2021/12/17 14:12:44;;;;;;;27.38;16.60;;;9.20;99.90;;;;;;4704194;30;20044;-85
2021/12/17 14:15:14;;;;;;;26.15;15.60;;;9.20;99.90;;;;;;4703218;30;20861;-86
2021/12/17 14:17:43;;;;;;;26.80;15.25;;;9.20;99.90;;;;;;4698905;29;20058;-86
2021/12/17 14:20:13;;;;;;;29.50;17.38;;;9.10;99.90;;;;;;4697009;29;20716;-84
2021/12/17 14:22:43;;;;;;;27.92;14.93;;;9.20;99.90;;;;;;4697019;30;20681;-85
2021/12/17 14:25:31;;;;;;;27.80;13.93;;;9.20;99.90;;;;;;4708993;29;20087;-85
2021/12/17 14:28:03;;;;;;;25.17;14.07;;;9.30;99.90;;;;;;4709698;29;20106;-85
2021/12/17 14:30:34;;;;;;;27.77;15.18;;;9.30;99.90;;;;;;4743281;29;20053;-83
2021/12/17 14:33:06;;;;;;;29.38;15.00;;;9.50;99.90;;;;;;4728547;29;20075;-83
2021/12/17 14:35:44;;;;;;;31.05;14.43;;;9.40;99.90;;;;;;4739128;29;20919;-86
2021/12/17 14:38:13;;;;;;;21.15;13.40;;;9.50;99.90;;;;;;4733803;29;20559;-87
2021/12/17 14:40:45;;;;;;;19.42;13.82;;;9.40;99.90;;;;;;4730627;30;20051;-86
2021/12/17 14:43:22;;;;;;;27.65;14.38;;;9.40;99.90;;;;;;4727497;30;20079;-86
2021/12/17 14:46:03;;;;;;;31.35;15.75;;;9.40;99.90;;;;;;4725765;30;20115;-87
2021/12/17 14:48:39;;;;;;;26.95;15.57;;;9.30;99.90;;;;;;4729428;29;20223;-84
2021/12/17 15:05:19;;;;;;;27.63;16.55;;;9.40;99.90;;;;;;4782457;29;20051;-87
2021/12/17 15:07:46;;;;;;;29.20;15.38;;;9.50;99.90;;;;;;4786904;29;20055;-86
2021/12/17 15:10:19;;;;;;;31.38;16.63;;;9.40;99.90;;;;;;4785760;30;20051;-85
2021/12/17 15:12:47;;;;;;;23.75;13.57;;;9.40;99.90;;;;;;4783164;30;20059;-85
2021/12/17 15:15:20;;;;;;;29.70;15.60;;;9.40;99.90;;;;;;4786770;29;20051;-86
2021/12/17 15:17:49;;;;;;;30.88;15.43;;;9.40;99.90;;;;;;4785186;29;20423;-86
2021/12/17 15:20:18;;;;;;;31.73;15.07;;;9.60;99.90;;;;;;4781574;29;20138;-85
2021/12/17 15:22:46;;;;;;;26.58;15.13;;;8.30;99.90;;;;;;4714241;29;20055;-87
2021/12/17 15:25:16;;;;;;;28.55;16.83;;;9.30;99.90;;;;;;4704906;29;20704;-86
2021/12/17 15:27:44;;;;;;;32.85;15.68;;;9.30;99.90;;;;;;4711917;29;20048;-86
2021/12/17 15:30:17;;;;;;;29.98;16.90;;;9.40;99.90;;;;;;4734599;29;20869;-85
2021/12/17 15:32:46;;;;;;;32.40;18.20;;;9.20;99.90;;;;;;4735056;29;20157;-85
2021/12/17 15:35:16;;;;;;;53.40;18.08;;;9.20;99.90;;;;;;4744950;29;20051;-85
2021/12/17 15:37:46;;;;;;;26.35;16.70;;;9.20;99.90;;;;;;4733355;29;20109;-84
2021/12/17 15:40:14;;;;;;;31.13;17.77;;;9.10;99.90;;;;;;4727866;29;20564;-85